createdAt,value
2023-02-02T00:00:13.402Z,66.47
2023-02-02T00:01:13.576Z,66.37
2023-02-02T00:02:13.835Z,66.27
2023-02-02T00:03:13.929Z,66.37
2023-02-02T00:04:14.240Z,66.37
2023-02-02T00:05:14.342Z,66.24
2023-02-02T00:06:14.464Z,66.13
2023-02-02T00:07:14.635Z,66.13
2023-02-02T00:08:14.875Z,65.83
2023-02-02T00:09:14.948Z,65.92
2023-02-02T00:10:15.133Z,65.83
2023-02-02T00:11:15.319Z,65.52
2023-02-02T00:12:15.484Z,65.52
2023-02-02T00:13:15.669Z,65.52
2023-02-02T00:14:15.839Z,65.48
2023-02-02T00:15:16.006Z,65.48
2023-02-02T00:16:16.204Z,65.38
2023-02-02T00:17:16.335Z,65.28
2023-02-02T00:18:16.555Z,65.28
2023-02-02T00:19:16.689Z,65.17
2023-02-02T00:20:16.887Z,65.17
2023-02-02T00:21:17.038Z,65.17
2023-02-02T00:22:17.226Z,65.17
2023-02-02T00:23:17.473Z,65.38
2023-02-02T00:24:17.590Z,65.17
2023-02-02T00:25:17.761Z,64.97
2023-02-02T00:26:18.031Z,64.87
2023-02-02T00:27:18.090Z,64.97
2023-02-02T00:28:18.282Z,64.63
2023-02-02T00:29:18.447Z,64.84
2023-02-02T00:30:18.648Z,64.63
2023-02-02T00:31:18.843Z,64.63
2023-02-02T00:32:18.948Z,64.53
2023-02-02T00:33:19.201Z,64.32
2023-02-02T00:34:19.287Z,64.43
2023-02-02T00:35:19.467Z,64.32
2023-02-02T00:36:19.718Z,64.29
2023-02-02T00:37:19.806Z,64.09
2023-02-02T00:38:20.037Z,64.12
2023-02-02T00:39:20.167Z,64.19
2023-02-02T00:40:20.347Z,64.09
2023-02-02T00:41:20.516Z,63.98
2023-02-02T00:42:20.697Z,63.98
2023-02-02T00:43:20.877Z,63.98
2023-02-02T00:44:21.050Z,63.89
2023-02-02T00:45:21.218Z,63.78
2023-02-02T00:46:21.386Z,63.57
2023-02-02T00:47:21.554Z,63.57
2023-02-02T00:48:21.736Z,63.68
2023-02-02T00:49:21.907Z,63.78
2023-02-02T00:50:22.075Z,63.68
2023-02-02T00:51:22.276Z,63.89
2023-02-02T00:52:22.415Z,63.75
2023-02-02T00:53:22.608Z,63.75
2023-02-02T00:54:22.829Z,63.85
2023-02-02T00:55:23.281Z,63.75
2023-02-02T00:56:23.113Z,63.65
2023-02-02T00:57:23.282Z,63.85
2023-02-02T00:58:23.465Z,63.65
2023-02-02T00:59:23.637Z,63.85
2023-02-02T01:00:23.808Z,63.85
2023-02-02T01:01:24.025Z,63.85
2023-02-02T01:02:24.258Z,63.75
2023-02-02T01:03:24.344Z,64.16
2023-02-02T01:04:24.525Z,64.26
2023-02-02T01:05:25.052Z,64.16
2023-02-02T01:06:24.852Z,64.16
2023-02-02T01:07:25.084Z,64.16
2023-02-02T01:08:25.214Z,64.26
2023-02-02T01:09:25.384Z,64.26
2023-02-02T01:10:25.600Z,64.26
2023-02-02T01:11:25.729Z,64.26
2023-02-02T01:12:25.899Z,64.06
2023-02-02T01:13:26.088Z,64.06
2023-02-02T01:14:26.266Z,63.85
2023-02-02T01:15:26.649Z,64.06
2023-02-02T01:16:26.655Z,64.06
2023-02-02T01:17:26.783Z,64.16
2023-02-02T01:18:26.987Z,64.06
2023-02-02T01:19:27.243Z,63.96
2023-02-02T01:20:27.284Z,63.85
2023-02-02T01:21:27.462Z,63.85
2023-02-02T01:22:27.668Z,63.96
2023-02-02T01:23:27.811Z,63.85
2023-02-02T01:24:27.991Z,63.75
2023-02-02T01:25:28.203Z,63.96
2023-02-02T01:26:28.354Z,64.06
2023-02-02T01:27:28.513Z,63.75
2023-02-02T01:28:28.809Z,63.96
2023-02-02T01:29:28.853Z,64.37
2023-02-02T01:30:29.021Z,64.26
2023-02-02T01:31:29.281Z,64.26
2023-02-02T01:32:29.372Z,64.37
2023-02-02T01:33:29.559Z,64.47
2023-02-02T01:34:29.750Z,64.57
2023-02-02T01:35:29.913Z,64.78
2023-02-02T01:36:30.094Z,64.67
2023-02-02T01:37:30.255Z,64.98
2023-02-02T01:38:30.439Z,64.98
2023-02-02T01:39:30.612Z,65.09
2023-02-02T01:40:30.794Z,64.98
2023-02-02T01:41:31.067Z,65.09
2023-02-02T01:42:31.150Z,65.39
2023-02-02T01:43:31.336Z,65.70
2023-02-02T01:44:31.603Z,65.39
2023-02-02T01:45:31.739Z,65.39
2023-02-02T01:46:31.869Z,65.50
2023-02-02T01:47:32.117Z,65.60
2023-02-02T01:48:32.249Z,65.50
2023-02-02T01:49:32.410Z,65.39
2023-02-02T01:50:32.635Z,65.39
2023-02-02T01:51:32.760Z,65.19
2023-02-02T01:52:32.941Z,65.29
2023-02-02T01:53:33.141Z,65.19
2023-02-02T01:54:33.270Z,65.19
2023-02-02T01:55:33.438Z,65.19
2023-02-02T01:56:33.619Z,65.39
2023-02-02T01:57:33.779Z,65.80
2023-02-02T01:58:33.961Z,65.70
2023-02-02T01:59:34.131Z,66.01
2023-02-02T02:00:34.299Z,66.01
2023-02-02T02:01:34.486Z,65.50
2023-02-02T02:02:34.700Z,65.60
2023-02-02T02:03:34.818Z,65.50
2023-02-02T02:04:34.987Z,65.39
2023-02-02T02:05:35.194Z,65.39
2023-02-02T02:06:35.361Z,65.50
2023-02-02T02:07:35.538Z,65.29
2023-02-02T02:08:35.711Z,65.19
2023-02-02T02:09:35.935Z,65.50
2023-02-02T02:10:36.054Z,65.29
2023-02-02T02:11:36.232Z,65.29
2023-02-02T02:12:36.399Z,65.39
2023-02-02T02:13:36.585Z,65.60
2023-02-02T02:14:36.756Z,65.50
2023-02-02T02:15:36.916Z,65.39
2023-02-02T02:16:37.137Z,65.39
2023-02-02T02:17:37.276Z,65.50
2023-02-02T02:18:37.457Z,65.50
2023-02-02T02:19:37.635Z,65.50
2023-02-02T02:20:37.795Z,65.50
2023-02-02T02:21:37.975Z,65.70
2023-02-02T02:22:38.127Z,65.70
2023-02-02T02:23:38.335Z,65.60
2023-02-02T02:24:38.477Z,65.80
2023-02-02T02:25:38.722Z,65.70
2023-02-02T02:26:38.911Z,65.50
2023-02-02T02:27:39.001Z,65.50
2023-02-02T02:28:39.185Z,65.19
2023-02-02T02:29:39.393Z,65.39
2023-02-02T02:30:39.574Z,65.29
2023-02-02T02:31:39.732Z,64.88
2023-02-02T02:32:39.857Z,65.09
2023-02-02T02:33:40.037Z,64.88
2023-02-02T02:34:40.205Z,64.98
2023-02-02T02:35:40.413Z,65.09
2023-02-02T02:36:40.564Z,65.09
2023-02-02T02:37:40.757Z,65.60
2023-02-02T02:38:40.926Z,65.70
2023-02-02T02:39:41.075Z,65.80
2023-02-02T02:40:41.244Z,66.22
2023-02-02T02:41:41.414Z,66.42
2023-02-02T02:42:41.673Z,66.22
2023-02-02T02:43:41.777Z,66.22
2023-02-02T02:44:41.913Z,66.31
2023-02-02T02:45:42.094Z,66.31
2023-02-02T02:46:42.244Z,66.52
2023-02-02T02:47:42.420Z,66.42
2023-02-02T02:48:42.597Z,66.52
2023-02-02T02:49:42.772Z,66.63
2023-02-02T02:50:42.933Z,66.52
2023-02-02T02:51:43.114Z,66.63
2023-02-02T02:52:43.286Z,66.63
2023-02-02T02:53:43.485Z,66.63
2023-02-02T02:54:43.652Z,66.42
2023-02-02T02:55:43.843Z,66.63
2023-02-02T02:56:44.004Z,66.63
2023-02-02T02:57:44.171Z,66.73
2023-02-02T02:58:44.366Z,66.83
2023-02-02T02:59:44.505Z,66.93
2023-02-02T03:00:44.683Z,66.93
2023-02-02T03:01:44.894Z,67.03
2023-02-02T03:02:45.056Z,67.44
2023-02-02T03:03:45.223Z,67.55
2023-02-02T03:04:45.373Z,67.99
2023-02-02T03:05:45.554Z,67.86
2023-02-02T03:06:45.741Z,68.06
2023-02-02T03:07:45.901Z,67.89
2023-02-02T03:08:46.091Z,67.89
2023-02-02T03:09:46.283Z,68.40
2023-02-02T03:10:46.423Z,68.61
2023-02-02T03:11:46.592Z,69.12
2023-02-02T03:12:46.760Z,69.12
2023-02-02T03:13:46.933Z,69.43
2023-02-02T03:14:47.105Z,69.43
2023-02-02T03:15:47.314Z,69.74
2023-02-02T03:16:47.449Z,69.74
2023-02-02T03:17:47.620Z,69.94
2023-02-02T03:18:47.805Z,69.74
2023-02-02T03:19:47.975Z,69.64
2023-02-02T03:20:48.164Z,69.98
2023-02-02T03:21:48.322Z,69.87
2023-02-02T03:22:48.494Z,69.84
2023-02-02T03:23:48.717Z,69.56
2023-02-02T03:24:48.896Z,69.87
2023-02-02T03:25:49.016Z,69.77
2023-02-02T03:26:49.225Z,69.77
2023-02-02T03:27:49.331Z,69.77
2023-02-02T03:28:49.513Z,70.18
2023-02-02T03:29:49.731Z,70.49
2023-02-02T03:30:49.954Z,70.59
2023-02-02T03:31:50.030Z,70.59
2023-02-02T03:32:50.285Z,70.94
2023-02-02T03:33:50.390Z,71.11
2023-02-02T03:34:50.630Z,71.45
2023-02-02T03:35:50.752Z,71.11
2023-02-02T03:36:50.911Z,71.21
2023-02-02T03:37:51.109Z,71.31
2023-02-02T03:38:51.300Z,71.31
2023-02-02T03:39:53.169Z,71.31
2023-02-02T03:40:51.629Z,71.31
2023-02-02T03:41:51.802Z,71.51
2023-02-02T03:42:51.975Z,71.75
2023-02-02T03:43:52.181Z,71.75
2023-02-02T03:44:52.344Z,71.96
2023-02-02T03:45:52.573Z,71.96
2023-02-02T03:46:52.690Z,71.96
2023-02-02T03:47:52.870Z,71.96
2023-02-02T03:48:53.148Z,71.96
2023-02-02T03:49:53.188Z,72.06
2023-02-02T03:50:53.369Z,71.75
2023-02-02T03:51:53.618Z,71.86
2023-02-02T03:52:53.720Z,71.75
2023-02-02T03:53:53.919Z,71.45
2023-02-02T03:54:54.139Z,71.55
2023-02-02T03:55:54.239Z,71.34
2023-02-02T03:56:54.400Z,71.14
2023-02-02T03:57:54.609Z,71.14
2023-02-02T03:58:54.741Z,71.04
2023-02-02T03:59:54.899Z,71.14
2023-02-02T04:00:55.057Z,71.04
2023-02-02T04:01:55.296Z,71.14
2023-02-02T04:02:55.485Z,70.73
2023-02-02T04:03:55.607Z,70.83
2023-02-02T04:04:55.759Z,70.62
2023-02-02T04:05:55.938Z,70.62
2023-02-02T04:06:56.099Z,70.32
2023-02-02T04:07:56.291Z,70.62
2023-02-02T04:08:56.459Z,70.42
2023-02-02T04:09:56.640Z,70.32
2023-02-02T04:10:56.821Z,70.21
2023-02-02T04:11:56.974Z,70.21
2023-02-02T04:12:57.130Z,70.21
2023-02-02T04:13:57.321Z,70.11
2023-02-02T04:14:57.457Z,70.11
2023-02-02T04:15:57.709Z,70.01
2023-02-02T04:16:57.830Z,70.11
2023-02-02T04:17:58.004Z,70.11
2023-02-02T04:18:58.240Z,70.01
2023-02-02T04:19:58.339Z,70.08
2023-02-02T04:20:58.496Z,69.98
2023-02-02T04:21:58.737Z,69.98
2023-02-02T04:22:58.817Z,69.98
2023-02-02T04:23:59.055Z,69.87
2023-02-02T04:24:59.236Z,69.60
2023-02-02T04:25:59.371Z,69.56
2023-02-02T04:26:59.520Z,69.87
2023-02-02T04:27:59.733Z,69.56
2023-02-02T04:28:59.904Z,69.67
2023-02-02T04:30:00.101Z,69.67
2023-02-02T04:31:00.263Z,69.46
2023-02-02T04:32:00.472Z,69.15
2023-02-02T04:33:00.595Z,68.95
2023-02-02T04:34:00.809Z,69.05
2023-02-02T04:35:00.966Z,69.26
2023-02-02T04:36:01.148Z,69.15
2023-02-02T04:37:01.305Z,69.05
2023-02-02T04:38:01.496Z,68.95
2023-02-02T04:39:01.686Z,69.05
2023-02-02T04:40:01.901Z,68.95
2023-02-02T04:41:02.007Z,68.85
2023-02-02T04:42:02.205Z,68.33
2023-02-02T04:43:02.384Z,68.33
2023-02-02T04:44:02.563Z,68.33
2023-02-02T04:45:02.736Z,68.23
2023-02-02T04:46:02.947Z,68.13
2023-02-02T04:47:03.078Z,68.33
2023-02-02T04:48:03.292Z,67.92
2023-02-02T04:49:03.454Z,68.02
2023-02-02T04:50:03.616Z,67.92
2023-02-02T04:51:03.828Z,67.82
2023-02-02T04:52:03.944Z,68.13
2023-02-02T04:53:04.142Z,68.13
2023-02-02T04:54:04.355Z,68.02
2023-02-02T04:55:04.455Z,67.82
2023-02-02T04:56:04.599Z,67.82
2023-02-02T04:57:04.764Z,68.02
2023-02-02T04:58:05.012Z,67.92
2023-02-02T04:59:05.093Z,67.92
2023-02-02T05:00:05.264Z,67.92
2023-02-02T05:01:05.544Z,68.13
2023-02-02T05:02:05.614Z,67.92
2023-02-02T05:03:05.778Z,68.13
2023-02-02T05:04:06.125Z,67.99
2023-02-02T05:05:06.106Z,68.13
2023-02-02T05:06:06.278Z,68.02
2023-02-02T05:07:06.465Z,68.13
2023-02-02T05:08:06.614Z,68.23
2023-02-02T05:09:06.799Z,68.10
2023-02-02T05:10:06.981Z,68.10
2023-02-02T05:11:07.141Z,68.10
2023-02-02T05:12:07.303Z,68.19
2023-02-02T05:13:07.468Z,68.19
2023-02-02T05:14:07.633Z,68.43
2023-02-02T05:15:07.805Z,68.43
2023-02-02T05:16:08.116Z,68.43
2023-02-02T05:17:08.172Z,68.43
2023-02-02T05:18:08.323Z,68.43
2023-02-02T05:19:08.504Z,68.33
2023-02-02T05:20:08.731Z,68.33
2023-02-02T05:21:08.843Z,68.43
2023-02-02T05:22:09.010Z,68.33
2023-02-02T05:23:09.258Z,68.43
2023-02-02T05:24:09.381Z,68.43
2023-02-02T05:25:09.531Z,68.33
2023-02-02T05:26:09.756Z,68.54
2023-02-02T05:27:09.862Z,68.54
2023-02-02T05:28:10.020Z,68.54
2023-02-02T05:29:10.257Z,68.43
2023-02-02T05:30:10.366Z,68.13
2023-02-02T05:31:10.598Z,68.33
2023-02-02T05:32:10.812Z,68.33
2023-02-02T05:33:10.855Z,68.43
2023-02-02T05:34:11.062Z,68.64
2023-02-02T05:35:11.228Z,68.64
2023-02-02T05:36:11.382Z,68.54
2023-02-02T05:37:11.541Z,68.43
2023-02-02T05:38:11.702Z,68.43
2023-02-02T05:39:11.887Z,68.51
2023-02-02T05:40:12.053Z,68.40
2023-02-02T05:41:12.211Z,68.30
2023-02-02T05:42:12.391Z,68.30
2023-02-02T05:43:12.571Z,68.40
2023-02-02T05:44:12.762Z,68.30
2023-02-02T05:45:12.987Z,68.40
2023-02-02T05:46:13.080Z,68.19
2023-02-02T05:47:13.266Z,68.19
2023-02-02T05:48:13.507Z,68.40
2023-02-02T05:49:13.646Z,68.10
2023-02-02T05:50:13.805Z,67.99
2023-02-02T05:51:13.969Z,68.10
2023-02-02T05:52:14.127Z,68.10
2023-02-02T05:53:14.279Z,68.10
2023-02-02T05:54:14.495Z,67.99
2023-02-02T05:55:14.641Z,67.89
2023-02-02T05:56:14.802Z,67.89
2023-02-02T05:57:14.975Z,67.79
2023-02-02T05:58:15.120Z,67.89
2023-02-02T05:59:15.328Z,67.79
2023-02-02T06:00:15.479Z,67.68
2023-02-02T06:01:15.640Z,67.68
2023-02-02T06:02:15.802Z,67.58
2023-02-02T06:03:16.173Z,67.48
2023-02-02T06:04:16.251Z,67.38
2023-02-02T06:05:16.298Z,67.27
2023-02-02T06:06:16.533Z,67.07
2023-02-02T06:07:16.653Z,67.07
2023-02-02T06:08:16.798Z,66.96
2023-02-02T06:09:17.046Z,66.86
2023-02-02T06:10:17.115Z,66.89
2023-02-02T06:11:17.291Z,67.10
2023-02-02T06:12:17.480Z,67.10
2023-02-02T06:13:17.640Z,67.00
2023-02-02T06:14:17.832Z,67.10
2023-02-02T06:15:17.970Z,67.20
2023-02-02T06:16:18.174Z,67.30
2023-02-02T06:17:18.281Z,67.30
2023-02-02T06:18:18.466Z,67.20
2023-02-02T06:19:18.694Z,67.20
2023-02-02T06:20:21.311Z,67.10
2023-02-02T06:21:18.972Z,67.20
2023-02-02T06:22:19.158Z,67.41
2023-02-02T06:23:19.301Z,67.30
2023-02-02T06:24:19.486Z,67.41
2023-02-02T06:25:19.649Z,67.20
2023-02-02T06:26:19.898Z,67.10
2023-02-02T06:27:19.998Z,67.00
2023-02-02T06:28:20.159Z,66.69
2023-02-02T06:29:20.388Z,66.89
2023-02-02T06:30:20.507Z,66.79
2023-02-02T06:31:20.787Z,67.00
2023-02-02T06:32:20.936Z,66.69
2023-02-02T06:33:21.050Z,66.89
2023-02-02T06:34:21.250Z,66.79
2023-02-02T06:35:21.459Z,66.89
2023-02-02T06:36:21.560Z,67.00
2023-02-02T06:37:21.751Z,67.10
2023-02-02T06:38:21.926Z,66.79
2023-02-02T06:39:22.153Z,66.89
2023-02-02T06:40:22.324Z,66.86
2023-02-02T06:41:22.473Z,66.76
2023-02-02T06:42:22.655Z,66.76
2023-02-02T06:43:22.882Z,66.66
2023-02-02T06:44:23.029Z,66.76
2023-02-02T06:45:23.327Z,66.86
2023-02-02T06:46:23.428Z,66.76
2023-02-02T06:47:24.996Z,66.66
2023-02-02T06:48:23.716Z,66.76
2023-02-02T06:49:23.945Z,66.76
2023-02-02T06:50:24.152Z,67.20
2023-02-02T06:51:24.264Z,67.27
2023-02-02T06:52:24.485Z,67.20
2023-02-02T06:53:24.625Z,67.17
2023-02-02T06:54:24.827Z,67.17
2023-02-02T06:55:25.322Z,67.07
2023-02-02T06:56:25.169Z,67.27
2023-02-02T06:57:25.428Z,67.27
2023-02-02T06:58:25.533Z,67.27
2023-02-02T06:59:25.757Z,67.27
2023-02-02T07:00:25.975Z,67.27
2023-02-02T07:01:26.100Z,67.27
2023-02-02T07:02:26.343Z,67.27
2023-02-02T07:03:26.467Z,67.17
2023-02-02T07:04:26.625Z,67.38
2023-02-02T07:05:30.005Z,67.27
2023-02-02T07:06:27.008Z,67.27
2023-02-02T07:07:27.127Z,67.27
2023-02-02T07:08:27.316Z,67.17
2023-02-02T07:09:27.492Z,67.27
2023-02-02T07:11:14.989Z,67.17
2023-02-02T07:11:28.850Z,67.07
2023-02-02T07:12:28.027Z,67.27
2023-02-02T07:13:28.212Z,67.27
2023-02-02T07:14:28.407Z,67.17
2023-02-02T07:15:28.610Z,67.03
2023-02-02T07:16:28.770Z,67.14
2023-02-02T07:17:28.938Z,67.14
2023-02-02T07:18:29.086Z,66.93
2023-02-02T07:19:29.394Z,67.03
2023-02-02T07:20:29.598Z,66.83
2023-02-02T07:21:29.645Z,66.83
2023-02-02T07:22:29.812Z,66.93
2023-02-02T07:23:30.006Z,66.93
2023-02-02T07:24:30.187Z,66.93
2023-02-02T07:25:30.371Z,67.03
2023-02-02T07:26:30.570Z,67.03
2023-02-02T07:27:30.691Z,67.03
2023-02-02T07:28:30.841Z,67.24
2023-02-02T07:29:31.025Z,67.14
2023-02-02T07:30:31.226Z,66.93
2023-02-02T07:31:32.555Z,66.93
2023-02-02T07:32:31.552Z,67.14
2023-02-02T07:33:31.703Z,67.14
2023-02-02T07:34:31.977Z,66.90
2023-02-02T07:35:32.096Z,66.90
2023-02-02T07:36:32.245Z,66.80
2023-02-02T07:37:32.460Z,66.80
2023-02-02T07:38:32.601Z,66.70
2023-02-02T07:39:32.791Z,66.70
2023-02-02T07:40:33.073Z,66.70
2023-02-02T07:41:33.135Z,66.49
2023-02-02T07:42:33.408Z,66.80
2023-02-02T07:43:33.504Z,66.70
2023-02-02T07:44:33.647Z,66.90
2023-02-02T07:45:33.841Z,66.87
2023-02-02T07:46:34.096Z,66.87
2023-02-02T07:47:34.204Z,66.77
2023-02-02T07:48:34.410Z,66.77
2023-02-02T07:49:34.582Z,66.87
2023-02-02T07:50:34.766Z,66.49
2023-02-02T07:51:37.303Z,66.80
2023-02-02T07:52:35.071Z,66.90
2023-02-02T07:53:35.264Z,66.67
2023-02-02T07:54:35.400Z,66.25
2023-02-02T07:55:35.600Z,66.16
2023-02-02T07:56:35.805Z,65.84
2023-02-02T07:57:35.929Z,65.54
2023-02-02T07:58:36.117Z,65.44
2023-02-02T07:59:36.291Z,65.51
2023-02-02T08:00:36.501Z,65.51
2023-02-02T08:01:36.662Z,65.20
2023-02-02T08:02:36.823Z,65.20
2023-02-02T08:03:36.980Z,65.10
2023-02-02T08:04:37.183Z,64.89
2023-02-02T08:05:37.381Z,64.79
2023-02-02T08:06:37.511Z,64.89
2023-02-02T08:07:37.715Z,64.89
2023-02-02T08:08:37.861Z,65.30
2023-02-02T08:09:38.100Z,65.30
2023-02-02T08:10:38.210Z,65.20
2023-02-02T08:11:38.420Z,65.51
2023-02-02T08:12:38.617Z,65.51
2023-02-02T08:13:38.734Z,65.81
2023-02-02T08:14:38.912Z,65.61
2023-02-02T08:15:39.148Z,65.81
2023-02-02T08:16:39.278Z,66.12
2023-02-02T08:17:39.458Z,66.12
2023-02-02T08:18:39.645Z,66.25
2023-02-02T08:19:39.815Z,66.22
2023-02-02T08:20:39.970Z,65.81
2023-02-02T08:21:40.130Z,66.22
2023-02-02T08:22:40.310Z,66.16
2023-02-02T08:23:40.510Z,66.16
2023-02-02T08:24:40.688Z,65.92
2023-02-02T08:25:40.875Z,66.02
2023-02-02T08:26:41.068Z,65.71
2023-02-02T08:27:41.194Z,65.41
2023-02-02T08:28:41.409Z,65.51
2023-02-02T08:29:41.561Z,65.61
2023-02-02T08:30:41.816Z,65.81
2023-02-02T08:31:42.162Z,65.61
2023-02-02T08:32:42.119Z,65.51
2023-02-02T08:33:42.283Z,65.20
2023-02-02T08:34:42.450Z,65.54
2023-02-02T08:35:42.654Z,65.10
2023-02-02T08:36:42.785Z,65.10
2023-02-02T08:37:42.980Z,65.30
2023-02-02T08:38:43.189Z,65.00
2023-02-02T08:39:43.333Z,64.59
2023-02-02T08:40:43.491Z,64.25
2023-02-02T08:41:43.681Z,63.73
2023-02-02T08:42:43.857Z,63.73
2023-02-02T08:43:44.052Z,63.40
2023-02-02T08:46:01.760Z,62.99
2023-02-02T08:46:02.112Z,63.40
2023-02-02T08:46:45.589Z,62.88
2023-02-02T08:47:44.727Z,62.96
2023-02-02T08:48:44.897Z,63.03
2023-02-02T08:49:45.070Z,61.24
2023-02-02T08:50:45.244Z,60.60
2023-02-02T08:51:45.388Z,60.19
2023-02-02T08:52:45.597Z,60.39
2023-02-02T08:53:45.741Z,60.83
2023-02-02T08:54:45.947Z,60.11
2023-02-02T08:55:46.122Z,60.39
2023-02-02T08:56:46.258Z,59.78
2023-02-02T08:57:46.495Z,59.55
2023-02-02T08:58:46.663Z,58.91
2023-02-02T08:59:46.819Z,58.14
2023-02-02T09:00:47.089Z,56.99
2023-02-02T09:01:47.189Z,56.24
2023-02-02T09:02:47.341Z,55.22
2023-02-02T09:03:47.522Z,55.43
2023-02-02T09:04:47.670Z,55.22
2023-02-02T09:05:47.877Z,55.00
2023-02-02T09:06:48.039Z,54.28
2023-02-02T09:07:48.190Z,53.96
2023-02-02T09:08:48.373Z,53.63
2023-02-02T09:09:48.525Z,53.24
2023-02-02T09:10:48.699Z,50.71
2023-02-02T09:11:48.864Z,48.49
2023-02-02T09:12:49.016Z,46.80
2023-02-02T09:13:49.227Z,45.22
2023-02-02T09:14:49.488Z,43.95
2023-02-02T09:15:49.594Z,43.22
2023-02-02T09:16:49.758Z,43.24
2023-02-02T09:17:49.899Z,44.71
2023-02-02T09:18:50.089Z,45.99
2023-02-02T09:19:54.316Z,47.07
2023-02-02T09:20:50.439Z,48.74
2023-02-02T09:21:50.602Z,49.69
2023-02-02T09:22:50.761Z,50.65
2023-02-02T09:23:50.922Z,51.49
2023-02-02T09:24:51.118Z,52.15
2023-02-02T09:25:51.314Z,52.78
2023-02-02T09:26:51.552Z,53.39
2023-02-02T09:27:51.635Z,53.72
2023-02-02T09:28:51.776Z,54.26
2023-02-02T09:29:51.965Z,54.90
2023-02-02T09:30:52.168Z,55.10
2023-02-02T09:31:52.391Z,55.71
2023-02-02T09:32:52.498Z,55.51
2023-02-02T09:33:52.660Z,55.74
2023-02-02T09:34:52.834Z,55.94
2023-02-02T09:35:53.091Z,55.94
2023-02-02T09:36:53.167Z,55.74
2023-02-02T09:37:53.332Z,56.35
2023-02-02T09:38:53.544Z,55.94
2023-02-02T09:39:53.675Z,55.53
2023-02-02T09:40:53.873Z,55.61
2023-02-02T09:41:54.075Z,55.74
2023-02-02T09:42:54.235Z,55.63
2023-02-02T09:43:54.385Z,55.74
2023-02-02T09:44:54.566Z,56.27
2023-02-02T09:45:54.838Z,56.48
2023-02-02T09:46:55.015Z,56.68
2023-02-02T09:47:55.065Z,56.60
2023-02-02T09:48:55.346Z,56.71
2023-02-02T09:49:55.431Z,56.60
2023-02-02T09:50:55.700Z,56.50
2023-02-02T09:51:55.783Z,56.53
2023-02-02T09:52:55.927Z,56.43
2023-02-02T09:53:56.291Z,55.82
2023-02-02T09:54:56.278Z,56.02
2023-02-02T09:55:56.475Z,55.82
2023-02-02T09:56:56.643Z,55.00
2023-02-02T09:57:56.800Z,54.97
2023-02-02T09:58:58.850Z,54.36
2023-02-02T09:59:58.155Z,54.46
2023-02-02T10:00:57.384Z,54.64
2023-02-02T10:01:57.571Z,54.74
2023-02-02T10:02:57.680Z,53.90
2023-02-02T10:03:57.939Z,53.70
2023-02-02T10:04:58.106Z,53.78
2023-02-02T10:05:58.235Z,53.16
2023-02-02T10:06:58.426Z,52.86
2023-02-02T10:07:58.630Z,53.16
2023-02-02T10:08:58.763Z,53.27
2023-02-02T10:09:58.966Z,52.66
2023-02-02T10:10:59.144Z,53.09
2023-02-02T10:11:59.324Z,53.29
2023-02-02T10:12:59.437Z,53.90
2023-02-02T10:13:59.712Z,53.62
2023-02-02T10:14:59.875Z,53.22
2023-02-02T10:16:01.673Z,53.75
2023-02-02T10:17:00.210Z,54.46
2023-02-02T10:18:00.328Z,54.36
2023-02-02T10:19:00.488Z,54.97
2023-02-02T10:20:00.675Z,54.67
2023-02-02T10:21:00.923Z,54.77
2023-02-02T10:22:01.044Z,54.97
2023-02-02T10:23:01.205Z,54.59
2023-02-02T10:24:02.450Z,54.79
2023-02-02T10:25:01.560Z,55.10
2023-02-02T10:26:01.743Z,54.90
2023-02-02T10:27:01.981Z,55.20
2023-02-02T10:28:02.114Z,55.18
2023-02-02T10:29:02.271Z,54.97
2023-02-02T10:30:02.511Z,54.77
2023-02-02T10:31:02.843Z,55.07
2023-02-02T10:32:02.905Z,55.20
2023-02-02T10:33:03.008Z,55.30
2023-02-02T10:34:03.180Z,55.00
2023-02-02T10:35:13.520Z,55.10
2023-02-02T10:36:04.537Z,55.13
2023-02-02T10:37:03.722Z,55.36
2023-02-02T10:38:03.893Z,55.66
2023-02-02T10:39:04.055Z,56.07
2023-02-02T10:40:04.214Z,56.10
2023-02-02T10:41:04.385Z,57.22
2023-02-02T10:42:04.526Z,57.32
2023-02-02T10:43:04.703Z,58.98
2023-02-02T10:44:04.913Z,59.60
2023-02-02T10:45:05.053Z,60.52
2023-02-02T10:46:05.299Z,60.55
2023-02-02T10:47:05.422Z,60.85
2023-02-02T10:48:05.643Z,60.75
2023-02-02T10:49:05.817Z,61.06
2023-02-02T10:50:05.972Z,60.96
2023-02-02T10:51:06.136Z,61.06
2023-02-02T10:52:06.296Z,60.11
2023-02-02T10:53:06.480Z,60.72
2023-02-02T10:54:06.622Z,60.11
2023-02-02T10:55:06.833Z,60.21
2023-02-02T10:56:07.041Z,59.94
2023-02-02T10:57:07.132Z,59.83
2023-02-02T10:58:07.316Z,60.35
2023-02-02T10:59:07.539Z,60.14
2023-02-02T11:00:07.705Z,60.31
2023-02-02T11:01:07.918Z,60.01
2023-02-02T11:02:20.050Z,60.21
2023-02-02T11:03:09.222Z,59.91
2023-02-02T11:04:08.367Z,59.70
2023-02-02T11:05:08.575Z,59.60
2023-02-02T11:06:08.732Z,59.70
2023-02-02T11:07:08.901Z,59.70
2023-02-02T11:08:09.055Z,59.80
2023-02-02T11:09:09.233Z,59.60
2023-02-02T11:10:09.412Z,59.50
2023-02-02T11:11:09.620Z,59.60
2023-02-02T11:12:09.761Z,59.80
2023-02-02T11:13:09.943Z,59.91
2023-02-02T11:14:10.098Z,60.01
2023-02-02T11:15:10.243Z,60.08
2023-02-02T11:16:10.508Z,59.37
2023-02-02T11:17:10.591Z,59.03
2023-02-02T11:18:10.780Z,59.55
2023-02-02T11:19:10.963Z,59.03
2023-02-02T11:20:11.142Z,58.73
2023-02-02T11:21:11.350Z,58.22
2023-02-02T11:22:11.492Z,57.91
2023-02-02T11:23:11.683Z,57.60
2023-02-02T11:24:11.954Z,57.81
2023-02-02T11:25:12.057Z,57.78
2023-02-02T11:26:12.230Z,57.78
2023-02-02T11:27:12.429Z,57.48
2023-02-02T11:28:12.539Z,57.88
2023-02-02T11:29:12.738Z,57.78
2023-02-02T11:30:12.930Z,57.29
2023-02-02T11:31:13.196Z,57.50
2023-02-02T11:32:13.261Z,58.01
2023-02-02T11:33:13.422Z,57.78
2023-02-02T11:34:13.578Z,57.37
2023-02-02T11:35:13.751Z,57.27
2023-02-02T11:36:13.924Z,56.96
2023-02-02T11:37:14.091Z,56.94
2023-02-02T11:38:14.271Z,56.63
2023-02-02T11:39:14.449Z,56.53
2023-02-02T11:40:14.650Z,56.73
2023-02-02T11:41:14.842Z,56.73
2023-02-02T11:42:14.999Z,56.32
2023-02-02T11:43:15.155Z,56.43
2023-02-02T11:44:15.310Z,56.12
2023-02-02T11:45:15.504Z,56.15
2023-02-02T11:46:15.800Z,55.82
2023-02-02T11:47:15.781Z,56.23
2023-02-02T11:48:15.978Z,56.23
2023-02-02T11:49:16.165Z,56.32
2023-02-02T11:50:16.341Z,56.02
2023-02-02T11:51:16.623Z,56.02
2023-02-02T11:52:17.773Z,56.32
2023-02-02T11:53:16.872Z,55.84
2023-02-02T11:54:17.060Z,55.43
2023-02-02T11:55:17.322Z,55.13
2023-02-02T11:56:17.434Z,55.13
2023-02-02T11:57:17.613Z,56.04
2023-02-02T11:58:17.773Z,55.63
2023-02-02T11:59:17.929Z,55.54
2023-02-02T12:00:18.109Z,55.02
2023-02-02T12:01:18.309Z,55.10
2023-02-02T12:02:18.486Z,54.90
2023-02-02T12:03:18.631Z,54.90
2023-02-02T12:04:18.861Z,54.69
2023-02-02T12:05:19.050Z,54.92
2023-02-02T12:06:19.262Z,55.23
2023-02-02T12:07:19.340Z,55.13
2023-02-02T12:08:19.522Z,55.43
2023-02-02T12:09:19.725Z,55.33
2023-02-02T12:10:19.879Z,55.61
2023-02-02T12:11:20.079Z,56.02
2023-02-02T12:12:20.219Z,55.91
2023-02-02T12:13:20.409Z,55.71
2023-02-02T12:14:20.591Z,56.04
2023-02-02T12:15:20.847Z,56.56
2023-02-02T12:16:21.144Z,57.60
2023-02-02T12:17:21.125Z,58.52
2023-02-02T12:18:21.275Z,58.73
2023-02-02T12:19:21.446Z,59.23
2023-02-02T12:20:21.598Z,59.14
2023-02-02T12:21:21.822Z,59.85
2023-02-02T12:22:21.951Z,59.64
2023-02-02T12:23:22.147Z,59.44
2023-02-02T12:24:22.283Z,59.37
2023-02-02T12:25:22.748Z,59.78
2023-02-02T12:26:22.739Z,59.88
2023-02-02T12:27:22.850Z,59.98
2023-02-02T12:28:23.063Z,60.93
2023-02-02T12:29:23.175Z,60.83
2023-02-02T12:30:23.816Z,61.75
2023-02-02T12:31:23.649Z,61.75
2023-02-02T12:32:23.701Z,61.85
2023-02-02T12:33:23.902Z,61.16
2023-02-02T12:34:24.136Z,60.85
2023-02-02T12:35:24.263Z,61.57
2023-02-02T12:36:24.487Z,60.55
2023-02-02T12:37:24.639Z,60.55
2023-02-02T12:38:24.802Z,59.94
2023-02-02T12:39:24.943Z,59.86
2023-02-02T12:40:25.417Z,60.37
2023-02-02T12:41:25.332Z,60.78
2023-02-02T12:42:25.468Z,61.01
2023-02-02T12:43:25.631Z,61.01
2023-02-02T12:44:25.842Z,61.35
2023-02-02T12:45:26.087Z,61.45
2023-02-02T12:46:26.199Z,62.07
2023-02-02T12:47:26.339Z,61.66
2023-02-02T12:48:26.535Z,62.17
2023-02-02T12:49:26.719Z,62.30
2023-02-02T12:50:27.319Z,62.61
2023-02-02T12:51:27.111Z,62.30
2023-02-02T12:52:27.249Z,62.19
2023-02-02T12:53:27.463Z,62.51
2023-02-02T12:54:33.795Z,63.02